createdAt,value
2023-01-17T00:02:19.090Z,92344.69
2023-01-17T00:05:05.724Z,92364.56
2023-01-17T00:07:52.623Z,92372.47
2023-01-17T00:10:23.529Z,92373.31
2023-01-17T00:12:56.898Z,92371.81
2023-01-17T00:15:26.524Z,92352.50
2023-01-17T00:17:55.290Z,92371.25
2023-01-17T00:20:43.939Z,92366.00
2023-01-17T00:23:39.746Z,92341.28
2023-01-17T00:26:13.803Z,92332.72
2023-01-17T00:28:43.442Z,92341.84
2023-01-17T00:31:12.725Z,92350.22
2023-01-17T00:33:41.196Z,92344.59
2023-01-17T00:36:09.641Z,92368.25
2023-01-17T00:38:39.534Z,92363.13
2023-01-17T00:41:10.008Z,92374.44
2023-01-17T00:43:56.211Z,92363.44
2023-01-17T00:46:42.565Z,92350.69
2023-01-17T00:49:29.419Z,92321.84
2023-01-17T00:52:16.060Z,92331.91
2023-01-17T00:55:02.708Z,92324.28
2023-01-17T00:57:49.369Z,92311.41
2023-01-17T01:00:38.655Z,92309.38
2023-01-17T01:03:30.064Z,92331.38
2023-01-17T01:06:16.915Z,92348.69
2023-01-17T01:09:03.353Z,92367.63
2023-01-17T01:11:49.996Z,92370.25
2023-01-17T01:14:36.885Z,92376.50
2023-01-17T01:17:23.717Z,92353.44
2023-01-17T01:20:10.464Z,92347.28
2023-01-17T01:22:56.990Z,92327.41
2023-01-17T01:25:43.359Z,92326.78
2023-01-17T01:28:32.061Z,92341.41
2023-01-17T01:31:22.286Z,92343.69
2023-01-17T01:33:53.913Z,92351.75
2023-01-17T01:36:21.979Z,92355.94
2023-01-17T01:38:50.511Z,92329.94
2023-01-17T01:41:18.780Z,92323.63
2023-01-17T01:43:52.155Z,92315.38
2023-01-17T01:46:39.391Z,92311.84
2023-01-17T01:49:19.551Z,92315.94
2023-01-17T01:51:56.109Z,92308.19
2023-01-17T01:54:28.791Z,92292.19
2023-01-17T01:56:59.457Z,92298.72
2023-01-17T01:59:28.184Z,92286.84
2023-01-17T02:01:58.429Z,92278.41
2023-01-17T02:04:28.624Z,92269.00
2023-01-17T02:07:04.219Z,92279.59
2023-01-17T02:09:32.350Z,92266.00
2023-01-17T02:12:00.709Z,92273.66
2023-01-17T02:14:28.965Z,92250.81
2023-01-17T02:17:40.229Z,92252.38
2023-01-17T02:20:35.583Z,92264.19
2023-01-17T02:23:24.492Z,92283.66
2023-01-17T02:26:10.876Z,92279.06
2023-01-17T02:29:18.151Z,92289.56
2023-01-17T02:31:58.442Z,92287.75
2023-01-17T02:34:51.859Z,92293.81
2023-01-17T02:37:27.208Z,92285.44
2023-01-17T02:40:30.529Z,92272.69
2023-01-17T02:43:05.827Z,92276.03
2023-01-17T02:45:33.748Z,92259.16
2023-01-17T02:48:01.662Z,92250.28
2023-01-17T02:51:00.368Z,92246.47
2023-01-17T02:53:31.294Z,92228.25
2023-01-17T02:59:52.283Z,92221.72
2023-01-17T03:02:46.413Z,92218.53
2023-01-17T03:05:21.344Z,92216.44
2023-01-17T03:07:51.345Z,92218.81
2023-01-17T03:10:20.637Z,92214.84
2023-01-17T03:12:48.459Z,92209.19
2023-01-17T03:15:17.852Z,92193.84
2023-01-17T03:17:50.195Z,92199.31
2023-01-17T03:20:22.577Z,92197.81
2023-01-17T03:22:50.803Z,92212.59
2023-01-17T03:25:21.701Z,92205.84
2023-01-17T03:27:49.706Z,92208.91
2023-01-17T03:30:18.045Z,92200.84
2023-01-17T03:32:45.986Z,92221.38
2023-01-17T03:35:13.960Z,92205.63
2023-01-17T03:37:43.276Z,92224.22
2023-01-17T03:40:11.528Z,92242.06
2023-01-17T03:42:40.074Z,92260.06
2023-01-17T03:45:08.559Z,92247.00
2023-01-17T03:47:36.724Z,92255.34
2023-01-17T03:50:05.740Z,92244.88
2023-01-17T03:52:33.775Z,92254.28
2023-01-17T03:55:02.848Z,92239.31
2023-01-17T03:57:30.655Z,92252.81
2023-01-17T03:59:58.710Z,92251.44
2023-01-17T04:02:26.614Z,92232.38
2023-01-17T04:04:54.894Z,92231.47
2023-01-17T04:07:23.263Z,92230.09
2023-01-17T04:09:51.323Z,92218.97
2023-01-17T04:12:19.352Z,92205.72
2023-01-17T04:14:48.387Z,92202.16
2023-01-17T04:17:18.970Z,92217.69
2023-01-17T04:19:47.718Z,92218.75
2023-01-17T04:22:15.722Z,92227.69
2023-01-17T04:24:43.818Z,92244.25
2023-01-17T04:27:14.472Z,92253.16
2023-01-17T04:29:42.622Z,92270.09
2023-01-17T04:32:10.688Z,92277.97
2023-01-17T04:34:38.686Z,92281.53
2023-01-17T04:37:06.644Z,92278.91
2023-01-17T04:39:34.539Z,92268.72
2023-01-17T04:42:03.183Z,92262.69
2023-01-17T04:44:31.103Z,92254.56
2023-01-17T04:46:59.039Z,92254.66
2023-01-17T04:49:26.827Z,92280.41
2023-01-17T04:51:54.866Z,92278.59
2023-01-17T04:54:22.854Z,92301.34
2023-01-17T04:56:50.675Z,92286.34
2023-01-17T04:59:18.737Z,92276.13
2023-01-17T05:01:49.691Z,92276.34
2023-01-17T05:04:17.839Z,92273.19
2023-01-17T05:06:45.801Z,92284.59
2023-01-17T05:09:13.744Z,92286.09
2023-01-17T05:11:41.656Z,92297.09
2023-01-17T05:14:11.007Z,92298.69
2023-01-17T05:16:38.956Z,92301.19
2023-01-17T05:19:06.952Z,92309.63
2023-01-17T05:21:35.018Z,92299.53
2023-01-17T05:24:02.922Z,92303.94
2023-01-17T05:26:31.144Z,92329.78
2023-01-17T05:28:59.018Z,92328.22
2023-01-17T05:31:27.069Z,92321.50
2023-01-17T05:33:55.018Z,92318.66
2023-01-17T05:36:22.846Z,92307.22
2023-01-17T05:38:50.766Z,92304.84
2023-01-17T05:41:18.677Z,92303.47
2023-01-17T05:43:46.873Z,92301.22
2023-01-17T05:46:16.429Z,92315.13
2023-01-17T05:48:44.470Z,92291.41
2023-01-17T05:51:12.454Z,92287.63
2023-01-17T05:53:40.471Z,92284.50
2023-01-17T05:56:08.421Z,92275.44
2023-01-17T05:58:36.480Z,92277.94
2023-01-17T06:01:04.428Z,92267.63
2023-01-17T06:03:32.364Z,92267.41
2023-01-17T06:06:00.336Z,92249.84
2023-01-17T06:08:28.363Z,92245.06
2023-01-17T06:10:59.664Z,92234.75
2023-01-17T06:13:27.655Z,92240.16
2023-01-17T06:15:57.924Z,92250.66
2023-01-17T06:18:26.027Z,92266.00
2023-01-17T06:20:55.349Z,92269.72
2023-01-17T06:23:24.125Z,92257.13
2023-01-17T06:25:52.343Z,92268.91
2023-01-17T06:28:22.944Z,92260.09
2023-01-17T06:30:53.725Z,92243.44
2023-01-17T06:33:21.696Z,92227.59
2023-01-17T06:35:51.537Z,92252.66
2023-01-17T06:38:20.150Z,92242.63
2023-01-17T06:40:48.292Z,92251.78
2023-01-17T06:43:16.436Z,92249.31
2023-01-17T06:45:44.380Z,92245.41
2023-01-17T06:48:12.408Z,92248.84
2023-01-17T06:50:40.440Z,92267.94
2023-01-17T06:53:08.385Z,92263.56
2023-01-17T06:55:39.806Z,92258.44
2023-01-17T06:58:09.569Z,92275.34
2023-01-17T07:00:40.284Z,92298.22
2023-01-17T07:03:21.020Z,92282.97
2023-01-17T07:05:49.464Z,92300.84
2023-01-17T07:08:18.697Z,92312.19
2023-01-17T07:10:48.898Z,92297.94
2023-01-17T07:13:17.065Z,92291.69
2023-01-17T07:15:44.992Z,92315.66
2023-01-17T07:18:13.358Z,92305.06
2023-01-17T07:20:44.214Z,92307.50
2023-01-17T07:23:12.557Z,92321.16
2023-01-17T07:25:40.580Z,92318.19
2023-01-17T07:28:09.165Z,92315.94
2023-01-17T07:30:37.068Z,92321.22
2023-01-17T07:33:05.740Z,92309.56
2023-01-17T07:35:34.415Z,92314.41
2023-01-17T07:38:02.475Z,92292.94
2023-01-17T07:40:30.817Z,92306.84
2023-01-17T07:43:02.621Z,92302.09
2023-01-17T07:45:32.436Z,92299.50
2023-01-17T07:48:00.658Z,92315.03
2023-01-17T07:50:28.541Z,92317.13
2023-01-17T07:52:56.659Z,92322.59
2023-01-17T07:55:24.572Z,92305.50
2023-01-17T07:57:52.491Z,92312.97
2023-01-17T08:00:21.617Z,92307.22
2023-01-17T08:02:49.991Z,92300.72
2023-01-17T08:05:18.062Z,92309.22
2023-01-17T08:07:45.935Z,92297.56
2023-01-17T08:10:18.196Z,92284.53
2023-01-17T08:12:48.264Z,92277.91
2023-01-17T08:15:18.022Z,92280.72
2023-01-17T08:17:49.947Z,92283.56
2023-01-17T08:20:18.117Z,92296.50
2023-01-17T08:22:46.145Z,92303.50
2023-01-17T08:25:14.200Z,92308.56
2023-01-17T08:27:42.149Z,92312.31
2023-01-17T08:30:10.927Z,92313.88
2023-01-17T08:32:41.507Z,92316.34
2023-01-17T08:35:10.487Z,92323.28
2023-01-17T08:37:39.320Z,92307.59
2023-01-17T08:40:09.028Z,92304.50
2023-01-17T08:42:40.410Z,92318.50
2023-01-17T08:45:10.273Z,92323.72
2023-01-17T08:47:38.373Z,92320.84
2023-01-17T08:50:07.227Z,92313.69
2023-01-17T08:52:35.253Z,92318.47
2023-01-17T08:55:03.869Z,92322.69
2023-01-17T08:57:33.083Z,92313.16
2023-01-17T09:00:00.783Z,92307.63
2023-01-17T09:02:28.631Z,92303.88
2023-01-17T09:04:56.397Z,92310.50
2023-01-17T09:07:25.394Z,92301.75
2023-01-17T09:09:53.866Z,92299.00
2023-01-17T09:12:22.709Z,92288.03
2023-01-17T09:14:50.662Z,92294.41
2023-01-17T09:17:18.328Z,92279.59
2023-01-17T09:19:47.718Z,92264.19
2023-01-17T09:22:15.956Z,92271.56
2023-01-17T09:24:44.336Z,92267.38
2023-01-17T09:27:12.263Z,92270.28
2023-01-17T09:29:40.260Z,92282.28
2023-01-17T09:32:08.219Z,92257.56
2023-01-17T09:34:36.140Z,92260.97
2023-01-17T09:37:04.362Z,92253.44
2023-01-17T09:39:32.227Z,92252.56
2023-01-17T09:42:00.117Z,92246.66
2023-01-17T09:44:35.867Z,92238.84
2023-01-17T09:47:16.455Z,92243.22
2023-01-17T09:49:48.060Z,92247.84
2023-01-17T09:52:21.301Z,92242.59
2023-01-17T09:54:51.102Z,92251.91
2023-01-17T09:57:46.807Z,92237.25
2023-01-17T10:00:49.888Z,92242.31
2023-01-17T10:03:26.875Z,92239.97
2023-01-17T10:06:27.975Z,92235.13
2023-01-17T10:09:40.410Z,92241.25
2023-01-17T10:12:18.896Z,92236.66
2023-01-17T10:15:07.409Z,92242.53
2023-01-17T10:18:06.541Z,92260.72
2023-01-17T10:20:49.809Z,92244.34
2023-01-17T10:23:31.034Z,92240.00
2023-01-17T10:26:05.146Z,92226.59
2023-01-17T10:28:41.041Z,92244.56
2023-01-17T10:31:16.838Z,92252.53
2023-01-17T10:34:12.171Z,92237.19
2023-01-17T10:36:44.943Z,92244.47
2023-01-17T10:39:24.642Z,92235.00
2023-01-17T10:41:56.799Z,92250.50
2023-01-17T10:44:59.585Z,92256.41
2023-01-17T10:47:33.465Z,92259.09
2023-01-17T10:50:05.404Z,92249.78
2023-01-17T10:52:53.138Z,92248.06
2023-01-17T10:55:39.210Z,92242.72
2023-01-17T10:58:12.696Z,92241.06
2023-01-17T11:00:45.612Z,92254.09
2023-01-17T11:03:16.494Z,92230.97
2023-01-17T11:05:44.654Z,92241.63
2023-01-17T11:08:15.839Z,92224.25
2023-01-17T11:10:47.487Z,92217.63
2023-01-17T11:13:24.118Z,92228.03
2023-01-17T11:15:57.895Z,92219.41
2023-01-17T11:18:29.876Z,92220.72
2023-01-17T11:21:16.185Z,92217.00
2023-01-17T11:23:47.073Z,92203.63
2023-01-17T11:26:26.406Z,92195.06
2023-01-17T11:29:26.143Z,92198.28
2023-01-17T11:31:58.793Z,92191.66
2023-01-17T11:34:32.279Z,92189.78
2023-01-17T11:37:18.679Z,92190.16
2023-01-17T11:39:50.313Z,92178.59
2023-01-17T11:42:33.886Z,92200.59
2023-01-17T11:45:38.005Z,92182.34
2023-01-17T11:48:09.014Z,92168.97
2023-01-17T11:50:46.772Z,92179.50
2023-01-17T11:53:28.239Z,92181.94
2023-01-17T11:56:06.219Z,92184.13
2023-01-17T11:58:41.407Z,92186.19
2023-01-17T12:01:23.211Z,92196.56
2023-01-17T12:04:24.438Z,92186.72
2023-01-17T12:07:04.514Z,92184.31
2023-01-17T12:09:48.135Z,92174.09
2023-01-17T12:12:42.548Z,92179.91
2023-01-17T12:15:22.669Z,92174.22
2023-01-17T12:18:12.149Z,92161.41
2023-01-17T12:20:41.726Z,92146.56
2023-01-17T12:23:34.042Z,92148.75
2023-01-17T12:26:07.962Z,92136.56
2023-01-17T12:29:04.842Z,92140.44
2023-01-17T12:31:54.337Z,92146.38
2023-01-17T12:34:32.376Z,92145.59
2023-01-17T12:37:18.275Z,92132.97
2023-01-17T12:40:18.142Z,92125.84
2023-01-17T12:43:26.890Z,92126.44
2023-01-17T12:45:54.940Z,92117.44
2023-01-17T12:48:29.578Z,92118.66
2023-01-17T12:51:05.274Z,92107.41
2023-01-17T12:53:51.870Z,92097.38
2023-01-17T12:56:29.941Z,92110.38
2023-01-17T12:59:12.800Z,92105.88
2023-01-17T13:01:57.743Z,92111.63
2023-01-17T13:04:57.737Z,92119.03
2023-01-17T13:08:08.879Z,92118.31
2023-01-17T13:11:04.271Z,92117.19
2023-01-17T13:13:33.443Z,92129.16
2023-01-17T13:16:11.992Z,92122.94
2023-01-17T13:18:46.653Z,92139.47
2023-01-17T13:21:32.331Z,92126.19
2023-01-17T13:24:02.305Z,92134.00
2023-01-17T13:26:36.805Z,92148.06
2023-01-17T13:29:43.489Z,92138.00
2023-01-17T13:32:23.479Z,92155.91
2023-01-17T13:35:12.587Z,92158.63
2023-01-17T13:37:59.083Z,92171.44
2023-01-17T13:40:52.963Z,92166.50
2023-01-17T13:43:27.882Z,92158.53
2023-01-17T13:46:00.036Z,92159.25
2023-01-17T13:48:41.118Z,92162.31
2023-01-17T13:51:10.446Z,92171.22
2023-01-17T13:53:41.231Z,92172.88
2023-01-17T13:56:29.588Z,92169.16
2023-01-17T13:59:03.439Z,92159.47
2023-01-17T14:01:38.754Z,92156.00
2023-01-17T14:04:12.138Z,92153.44
2023-01-17T14:06:44.799Z,92180.00
2023-01-17T14:09:27.844Z,92173.91
2023-01-17T14:12:24.874Z,92171.28
2023-01-17T14:14:55.931Z,92165.94
2023-01-17T14:17:25.836Z,92172.09
2023-01-17T14:19:58.401Z,92170.75
2023-01-17T14:22:41.826Z,92156.38
2023-01-17T14:25:15.196Z,92163.06
2023-01-17T14:27:43.216Z,92180.88
2023-01-17T14:30:17.908Z,92184.34
2023-01-17T14:33:09.079Z,92186.50
2023-01-17T14:35:49.739Z,92177.72
2023-01-17T14:38:23.925Z,92176.69
2023-01-17T14:40:55.825Z,92175.06
2023-01-17T14:43:26.842Z,92162.81
2023-01-17T14:46:04.401Z,92168.13
2023-01-17T14:48:32.489Z,92171.59
2023-01-17T14:51:01.393Z,92169.38
2023-01-17T14:53:33.610Z,92180.28
2023-01-17T14:56:17.116Z,92179.28
2023-01-17T14:58:46.852Z,92172.66
2023-01-17T15:01:20.236Z,92192.03
2023-01-17T15:03:58.562Z,92175.81
2023-01-17T15:06:46.822Z,92167.00
2023-01-17T15:09:23.008Z,92162.47
2023-01-17T15:11:53.594Z,92164.59
2023-01-17T15:14:38.146Z,92153.44
2023-01-17T15:17:26.637Z,92148.44
2023-01-17T15:19:59.845Z,92151.34
2023-01-17T15:22:30.060Z,92155.88
2023-01-17T15:27:41.845Z,92190.41
2023-01-17T15:52:27.444Z,92181.53
2023-01-17T15:57:56.169Z,92185.22
2023-01-17T16:00:38.005Z,92186.06
2023-01-17T16:03:25.876Z,92184.72
2023-01-17T16:05:57.204Z,92181.56
2023-01-17T16:08:40.318Z,92188.50
2023-01-17T16:11:11.916Z,92187.44
2023-01-17T16:13:42.646Z,92182.38
2023-01-17T16:16:12.254Z,92183.44
2023-01-17T16:18:41.493Z,92187.47
2023-01-17T16:21:17.430Z,92186.69
2023-01-17T16:23:46.527Z,92198.91
2023-01-17T16:26:15.840Z,92184.31
2023-01-17T16:28:44.247Z,92183.00
2023-01-17T16:31:12.725Z,92173.72
2023-01-17T16:33:42.294Z,92162.81
2023-01-17T16:36:15.508Z,92162.03
2023-01-17T16:38:45.584Z,92158.84
2023-01-17T16:41:13.703Z,92162.84
2023-01-17T16:43:42.141Z,92160.47
2023-01-17T16:46:12.491Z,92159.97
2023-01-17T16:48:41.020Z,92151.72
2023-01-17T16:51:09.582Z,92157.31
2023-01-17T16:53:38.994Z,92156.22
2023-01-17T16:56:17.480Z,92167.66
2023-01-17T16:58:48.279Z,92170.06
2023-01-17T17:01:21.231Z,92178.31
2023-01-17T17:03:49.932Z,92161.56
2023-01-17T17:06:18.555Z,92162.09
2023-01-17T17:08:47.847Z,92166.09
2023-01-17T17:11:23.185Z,92174.03
2023-01-17T17:13:52.440Z,92153.03
2023-01-17T17:16:24.503Z,92156.75
2023-01-17T17:18:59.178Z,92150.09
2023-01-17T17:21:29.407Z,92146.66
2023-01-17T17:24:00.391Z,92140.31
2023-01-17T17:26:32.652Z,92126.03
2023-01-17T17:29:02.174Z,92122.81
2023-01-17T17:31:30.589Z,92124.16
2023-01-17T17:34:01.622Z,92129.47
2023-01-17T17:36:30.602Z,92119.13
2023-01-17T17:38:59.546Z,92116.50
2023-01-17T17:41:36.272Z,92098.47
2023-01-17T17:44:05.486Z,92093.72
2023-01-17T17:46:34.165Z,92087.09
2023-01-17T17:49:02.634Z,92106.22
2023-01-17T17:51:36.544Z,92096.13
2023-01-17T17:54:07.668Z,92089.22
2023-01-17T17:56:38.143Z,92090.03
2023-01-17T17:59:09.439Z,92076.50
2023-01-17T18:01:41.505Z,92068.03
2023-01-17T18:04:10.147Z,92071.78
2023-01-17T18:06:39.696Z,92057.97
2023-01-17T18:09:10.216Z,92070.97
2023-01-17T18:11:42.987Z,92073.91
2023-01-17T18:14:14.902Z,92074.69
2023-01-17T18:16:45.221Z,92083.44
2023-01-17T18:19:24.377Z,92078.91
2023-01-17T18:21:54.178Z,92067.50
2023-01-17T18:24:24.333Z,92067.75
2023-01-17T18:26:56.268Z,92061.94
2023-01-17T18:29:26.360Z,92081.53
2023-01-17T18:31:55.447Z,92077.31
2023-01-17T18:34:30.269Z,92069.09
2023-01-17T18:36:59.119Z,92059.56
2023-01-17T18:39:29.880Z,92065.41
2023-01-17T18:41:59.053Z,92063.31
2023-01-17T18:44:27.866Z,92065.69
2023-01-17T18:47:04.876Z,92043.19
2023-01-17T18:49:34.401Z,92063.84
2023-01-17T18:52:02.694Z,92053.25
2023-01-17T18:54:32.362Z,92040.00
2023-01-17T18:57:00.650Z,92066.75
2023-01-17T18:59:29.342Z,92046.91
2023-01-17T19:01:59.205Z,92062.50
2023-01-17T19:04:28.942Z,92064.75
2023-01-17T19:06:57.090Z,92058.13
2023-01-17T19:09:25.206Z,92057.38
2023-01-17T19:11:53.194Z,92061.28
2023-01-17T19:14:21.240Z,92053.41
2023-01-17T19:16:49.179Z,92048.16
2023-01-17T19:19:17.079Z,92047.38
2023-01-17T19:21:45.081Z,92052.38
2023-01-17T19:24:13.478Z,92040.75
2023-01-17T19:26:42.411Z,92066.41
2023-01-17T19:29:10.702Z,92057.97
2023-01-17T19:31:43.139Z,92039.97
2023-01-17T19:34:14.098Z,92042.56
2023-01-17T19:36:42.818Z,92030.44
2023-01-17T19:39:11.099Z,92011.63
2023-01-17T19:41:44.019Z,92013.75
2023-01-17T19:44:13.833Z,92019.53
2023-01-17T19:46:41.939Z,92019.56
2023-01-17T19:49:10.098Z,92011.59
2023-01-17T19:51:39.882Z,92028.81
2023-01-17T19:54:08.598Z,92024.84
2023-01-17T19:56:36.983Z,92021.94
2023-01-17T19:59:05.055Z,92040.47
2023-01-17T20:01:34.507Z,92042.59
2023-01-17T20:04:03.735Z,92038.09
2023-01-17T20:06:34.835Z,92033.88
2023-01-17T20:09:04.808Z,92029.91
2023-01-17T20:11:33.120Z,92030.19
2023-01-17T20:14:01.154Z,92033.34
2023-01-17T20:16:31.219Z,92021.97
2023-01-17T20:19:00.458Z,92039.16
2023-01-17T20:21:30.576Z,92042.00
2023-01-17T20:24:00.304Z,92042.03
2023-01-17T20:26:35.023Z,92047.28
2023-01-17T20:29:10.787Z,92049.06
2023-01-17T20:31:41.751Z,92037.91
2023-01-17T20:34:13.076Z,92046.97
2023-01-17T20:36:42.303Z,92022.63
2023-01-17T20:39:11.348Z,92040.38
2023-01-17T20:41:45.070Z,92034.28
2023-01-17T20:44:15.672Z,92012.88
2023-01-17T20:46:44.588Z,92020.28
2023-01-17T20:49:19.186Z,92015.47
2023-01-17T20:51:48.453Z,92048.56
2023-01-17T20:54:18.622Z,92030.31
2023-01-17T20:59:40.494Z,92004.78
2023-01-17T21:04:52.561Z,92004.19
2023-01-17T21:07:20.999Z,92003.34
2023-01-17T21:09:49.376Z,92010.84
2023-01-17T21:12:17.791Z,91992.94
2023-01-17T21:14:45.756Z,91990.97
2023-01-17T21:17:16.494Z,91996.63
2023-01-17T21:19:44.557Z,91992.72
2023-01-17T21:22:16.955Z,91988.00
2023-01-17T21:24:44.860Z,91977.66
2023-01-17T21:27:13.326Z,91976.63
2023-01-17T21:29:41.805Z,91962.34
2023-01-17T21:32:10.985Z,91986.94
2023-01-17T21:34:39.447Z,91960.53
2023-01-17T21:37:07.689Z,91917.66
2023-01-17T21:39:35.926Z,91950.22
2023-01-17T21:42:03.984Z,91932.97
2023-01-17T21:44:36.486Z,91939.34
2023-01-17T21:47:04.673Z,91938.53
2023-01-17T21:49:32.796Z,91950.44
2023-01-17T21:52:00.829Z,91928.59
2023-01-17T21:54:49.116Z,91945.81
2023-01-17T21:57:38.890Z,91937.31
2023-01-17T22:00:10.815Z,91960.59
2023-01-17T22:02:45.088Z,91961.88
2023-01-17T22:05:14.414Z,91959.50
2023-01-17T22:08:01.244Z,91969.53
2023-01-17T22:10:29.645Z,91956.22
2023-01-17T22:12:57.637Z,91956.00
2023-01-17T22:15:25.970Z,91967.63
2023-01-17T22:17:54.275Z,91989.84
2023-01-17T22:20:22.479Z,91992.44
2023-01-17T22:22:50.502Z,91995.88
2023-01-17T22:25:18.411Z,91993.69
2023-01-17T22:27:46.413Z,91979.38
2023-01-17T22:30:14.537Z,91974.31
2023-01-17T22:32:42.591Z,91975.63
2023-01-17T22:35:10.460Z,91988.22
2023-01-17T22:37:38.474Z,91972.47
2023-01-17T22:40:07.190Z,91973.84
2023-01-17T22:42:35.251Z,91970.38
2023-01-17T22:45:03.442Z,91975.13
2023-01-17T22:47:33.299Z,91950.38
2023-01-17T22:50:01.147Z,91960.78
2023-01-17T22:52:29.312Z,91958.00
2023-01-17T22:54:57.237Z,91954.16
2023-01-17T22:57:25.228Z,91965.91
2023-01-17T22:59:53.273Z,91946.00
2023-01-17T23:02:21.461Z,91956.09
2023-01-17T23:04:49.505Z,91942.78
2023-01-17T23:07:17.791Z,91944.97
2023-01-17T23:09:45.830Z,91909.91
2023-01-17T23:12:13.635Z,91930.97
2023-01-17T23:15:03.358Z,91958.78
2023-01-17T23:17:49.854Z,91918.44
2023-01-17T23:20:17.689Z,91912.63
2023-01-17T23:22:45.646Z,91897.72
2023-01-17T23:25:14.380Z,91911.56
2023-01-17T23:28:05.916Z,91910.75
2023-01-17T23:30:36.993Z,91891.84
2023-01-17T23:33:10.406Z,91889.78
2023-01-17T23:35:43.406Z,91874.31
2023-01-17T23:38:30.984Z,91887.63
2023-01-17T23:41:23.011Z,91880.91
2023-01-17T23:43:55.582Z,91875.59
2023-01-17T23:46:25.557Z,91878.88
2023-01-17T23:48:55.228Z,91857.34
2023-01-17T23:51:23.201Z,91861.06
2023-01-17T23:53:55.351Z,91860.28
2023-01-17T23:56:27.157Z,91866.13
2023-01-17T23:58:54.825Z,91866.13
